sensor_id;sensor_type;location;lat;lon;timestamp;pressure;altitude;pressure_sealevel;temperature;humidity
40948;BME280;49382;-25.924;28.194;2023-08-01T00:01:50;85932.75;;;10.39;21.21
40948;BME280;49382;-25.924;28.194;2023-08-01T00:04:15;85941.78;;;10.35;21.27
40948;BME280;49382;-25.924;28.194;2023-08-01T00:06:40;85945.63;;;10.17;21.40
40948;BME280;49382;-25.924;28.194;2023-08-01T00:09:06;85946.10;;;10.35;21.61
40948;BME280;49382;-25.924;28.194;2023-08-01T00:11:31;85937.84;;;9.96;21.64
40948;BME280;49382;-25.924;28.194;2023-08-01T00:13:56;85933.80;;;9.35;22.04
40948;BME280;49382;-25.924;28.194;2023-08-01T00:16:21;85942.85;;;10.13;21.67
40948;BME280;49382;-25.924;28.194;2023-08-01T00:18:47;85943.12;;;10.56;21.46
40948;BME280;49382;-25.924;28.194;2023-08-01T00:21:12;85945.36;;;9.89;21.66
40948;BME280;49382;-25.924;28.194;2023-08-01T00:23:38;85946.72;;;9.64;22.21
40948;BME280;49382;-25.924;28.194;2023-08-01T00:26:03;85939.41;;;9.97;21.76
40948;BME280;49382;-25.924;28.194;2023-08-01T00:28:28;85937.46;;;9.97;21.72
40948;BME280;49382;-25.924;28.194;2023-08-01T00:33:19;85942.26;;;9.86;21.66
40948;BME280;49382;-25.924;28.194;2023-08-01T00:35:44;85940.82;;;9.86;21.83
40948;BME280;49382;-25.924;28.194;2023-08-01T00:38:09;85939.52;;;9.91;21.47
40948;BME280;49382;-25.924;28.194;2023-08-01T00:40:35;85944.18;;;10.35;21.23
40948;BME280;49382;-25.924;28.194;2023-08-01T00:43:00;85949.40;;;9.44;21.84
40948;BME280;49382;-25.924;28.194;2023-08-01T00:45:25;85956.37;;;9.58;21.52
40948;BME280;49382;-25.924;28.194;2023-08-01T00:47:50;85953.68;;;9.90;21.53
40948;BME280;49382;-25.924;28.194;2023-08-01T00:50:15;85952.28;;;9.78;21.41
40948;BME280;49382;-25.924;28.194;2023-08-01T00:52:40;85950.27;;;10.72;20.72
40948;BME280;49382;-25.924;28.194;2023-08-01T00:55:07;85948.14;;;10.12;21.19
40948;BME280;49382;-25.924;28.194;2023-08-01T00:57:31;85957.38;;;10.20;21.04
40948;BME280;49382;-25.924;28.194;2023-08-01T00:59:56;85957.08;;;10.53;20.92
40948;BME280;49382;-25.924;28.194;2023-08-01T01:02:21;85953.09;;;10.18;21.38
40948;BME280;49382;-25.924;28.194;2023-08-01T01:04:46;85946.50;;;9.96;21.36
40948;BME280;49382;-25.924;28.194;2023-08-01T01:07:12;85945.89;;;9.94;21.40
40948;BME280;49382;-25.924;28.194;2023-08-01T01:09:37;85947.10;;;10.35;21.04
40948;BME280;49382;-25.924;28.194;2023-08-01T01:12:03;85945.63;;;10.52;20.97
40948;BME280;49382;-25.924;28.194;2023-08-01T01:14:28;85940.89;;;9.63;21.66
40948;BME280;49382;-25.924;28.194;2023-08-01T01:16:53;85945.43;;;10.01;21.47
40948;BME280;49382;-25.924;28.194;2023-08-01T01:19:18;85942.01;;;9.73;21.28
40948;BME280;49382;-25.924;28.194;2023-08-01T01:21:45;85940.60;;;9.54;21.54
40948;BME280;49382;-25.924;28.194;2023-08-01T01:24:11;85943.13;;;9.72;21.36
40948;BME280;49382;-25.924;28.194;2023-08-01T01:26:36;85940.21;;;10.13;21.32
40948;BME280;49382;-25.924;28.194;2023-08-01T01:29:01;85945.49;;;9.32;21.71
40948;BME280;49382;-25.924;28.194;2023-08-01T01:31:27;85937.77;;;9.55;21.81
40948;BME280;49382;-25.924;28.194;2023-08-01T01:33:52;85933.22;;;8.96;22.23
40948;BME280;49382;-25.924;28.194;2023-08-01T01:36:18;85935.25;;;9.33;21.80
40948;BME280;49382;-25.924;28.194;2023-08-01T01:38:43;85932.10;;;8.94;22.13
40948;BME280;49382;-25.924;28.194;2023-08-01T01:41:08;85930.17;;;9.97;21.71
40948;BME280;49382;-25.924;28.194;2023-08-01T01:43:33;85930.47;;;9.50;21.58
40948;BME280;49382;-25.924;28.194;2023-08-01T01:45:58;85932.36;;;9.22;21.85
40948;BME280;49382;-25.924;28.194;2023-08-01T01:48:24;85930.64;;;9.74;21.60
40948;BME280;49382;-25.924;28.194;2023-08-01T01:50:49;85927.80;;;9.65;21.65
40948;BME280;49382;-25.924;28.194;2023-08-01T01:53:14;85931.45;;;9.47;21.75
40948;BME280;49382;-25.924;28.194;2023-08-01T01:55:39;85934.28;;;8.88;22.88
40948;BME280;49382;-25.924;28.194;2023-08-01T01:58:04;85936.10;;;9.08;22.72
40948;BME280;49382;-25.924;28.194;2023-08-01T02:00:30;85937.74;;;8.13;23.78
40948;BME280;49382;-25.924;28.194;2023-08-01T02:02:55;85938.95;;;7.43;24.40
40948;BME280;49382;-25.924;28.194;2023-08-01T02:05:20;85935.86;;;7.95;23.92
40948;BME280;49382;-25.924;28.194;2023-08-01T02:07:45;85938.55;;;8.30;23.42
40948;BME280;49382;-25.924;28.194;2023-08-01T02:10:11;85938.42;;;8.92;22.83
40948;BME280;49382;-25.924;28.194;2023-08-01T02:12:36;85942.56;;;8.64;22.93
40948;BME280;49382;-25.924;28.194;2023-08-01T02:15:01;85943.41;;;8.92;22.79
40948;BME280;49382;-25.924;28.194;2023-08-01T02:17:26;85941.14;;;9.24;22.07
40948;BME280;49382;-25.924;28.194;2023-08-01T02:19:51;85942.69;;;8.91;22.43
40948;BME280;49382;-25.924;28.194;2023-08-01T02:22:17;85950.31;;;9.07;22.39
40948;BME280;49382;-25.924;28.194;2023-08-01T02:24:42;85949.27;;;9.16;22.59
40948;BME280;49382;-25.924;28.194;2023-08-01T02:27:07;85948.37;;;8.77;22.65
40948;BME280;49382;-25.924;28.194;2023-08-01T02:29:32;85952.97;;;9.13;22.18
40948;BME280;49382;-25.924;28.194;2023-08-01T02:31:57;85953.71;;;9.59;22.28
40948;BME280;49382;-25.924;28.194;2023-08-01T02:34:23;85956.14;;;9.08;22.50
40948;BME280;49382;-25.924;28.194;2023-08-01T02:36:48;85949.00;;;9.49;22.13
40948;BME280;49382;-25.924;28.194;2023-08-01T02:39:13;85947.99;;;9.66;22.16
40948;BME280;49382;-25.924;28.194;2023-08-01T02:41:38;85943.21;;;8.66;22.93
40948;BME280;49382;-25.924;28.194;2023-08-01T02:44:04;85939.63;;;8.94;22.90
40948;BME280;49382;-25.924;28.194;2023-08-01T02:46:29;85937.01;;;8.71;22.87
40948;BME280;49382;-25.924;28.194;2023-08-01T02:48:54;85940.16;;;8.60;22.97
40948;BME280;49382;-25.924;28.194;2023-08-01T02:51:19;85943.36;;;9.00;22.99
40948;BME280;49382;-25.924;28.194;2023-08-01T02:53:44;85939.41;;;8.05;23.47
40948;BME280;49382;-25.924;28.194;2023-08-01T02:56:09;85937.07;;;8.31;23.51
40948;BME280;49382;-25.924;28.194;2023-08-01T02:58:35;85944.82;;;8.07;23.98
40948;BME280;49382;-25.924;28.194;2023-08-01T03:01:00;85946.11;;;8.78;23.35
40948;BME280;49382;-25.924;28.194;2023-08-01T03:03:25;85944.56;;;8.70;23.40
40948;BME280;49382;-25.924;28.194;2023-08-01T03:05:51;85949.20;;;8.98;23.08
40948;BME280;49382;-25.924;28.194;2023-08-01T03:08:16;85951.30;;;8.77;23.12
40948;BME280;49382;-25.924;28.194;2023-08-01T03:10:41;85950.56;;;9.13;22.98
40948;BME280;49382;-25.924;28.194;2023-08-01T03:13:06;85950.05;;;8.66;23.25
40948;BME280;49382;-25.924;28.194;2023-08-01T03:15:31;85949.41;;;8.94;23.01
40948;BME280;49382;-25.924;28.194;2023-08-01T03:17:56;85947.58;;;8.80;23.18
40948;BME280;49382;-25.924;28.194;2023-08-01T03:20:22;85949.74;;;9.33;22.80
40948;BME280;49382;-25.924;28.194;2023-08-01T03:22:47;85950.00;;;8.59;23.37
40948;BME280;49382;-25.924;28.194;2023-08-01T03:25:12;85942.84;;;8.15;23.76
40948;BME280;49382;-25.924;28.194;2023-08-01T03:27:38;85944.79;;;8.44;23.67
40948;BME280;49382;-25.924;28.194;2023-08-01T03:30:03;85942.77;;;8.44;23.78
40948;BME280;49382;-25.924;28.194;2023-08-01T03:32:29;85947.20;;;9.26;22.96
40948;BME280;49382;-25.924;28.194;2023-08-01T03:34:53;85950.92;;;8.91;22.85
40948;BME280;49382;-25.924;28.194;2023-08-01T03:37:18;85957.54;;;9.01;23.09
40948;BME280;49382;-25.924;28.194;2023-08-01T03:39:43;85964.80;;;9.08;23.18
40948;BME280;49382;-25.924;28.194;2023-08-01T03:42:09;85966.22;;;8.86;23.37
40948;BME280;49382;-25.924;28.194;2023-08-01T03:44:34;85970.19;;;8.75;23.48
40948;BME280;49382;-25.924;28.194;2023-08-01T03:46:59;85975.03;;;8.74;23.39
40948;BME280;49382;-25.924;28.194;2023-08-01T03:49:25;85977.31;;;8.93;23.29
40948;BME280;49382;-25.924;28.194;2023-08-01T03:51:50;85975.54;;;8.78;23.45
40948;BME280;49382;-25.924;28.194;2023-08-01T03:54:15;85973.53;;;8.57;23.67
40948;BME280;49382;-25.924;28.194;2023-08-01T03:56:40;85977.78;;;8.65;23.86
40948;BME280;49382;-25.924;28.194;2023-08-01T03:59:05;85983.44;;;7.24;25.23
40948;BME280;49382;-25.924;28.194;2023-08-01T04:01:31;85983.24;;;7.54;25.01
40948;BME280;49382;-25.924;28.194;2023-08-01T04:03:56;85985.56;;;7.18;25.48
40948;BME280;49382;-25.924;28.194;2023-08-01T04:06:21;85990.01;;;7.72;25.18
40948;BME280;49382;-25.924;28.194;2023-08-01T04:08:46;85993.48;;;7.90;24.76
40948;BME280;49382;-25.924;28.194;2023-08-01T04:11:12;85991.56;;;8.28;24.29
40948;BME280;49382;-25.924;28.194;2023-08-01T04:13:37;85994.22;;;8.08;24.53
40948;BME280;49382;-25.924;28.194;2023-08-01T04:16:02;86000.73;;;7.69;24.75
40948;BME280;49382;-25.924;28.194;2023-08-01T04:18:27;86000.79;;;7.66;24.57
40948;BME280;49382;-25.924;28.194;2023-08-01T04:20:53;86008.32;;;8.20;24.08
40948;BME280;49382;-25.924;28.194;2023-08-01T04:23:18;86012.06;;;8.18;24.14
40948;BME280;49382;-25.924;28.194;2023-08-01T04:25:43;86012.56;;;8.25;24.19
40948;BME280;49382;-25.924;28.194;2023-08-01T04:28:09;86017.11;;;8.40;24.13
40948;BME280;49382;-25.924;28.194;2023-08-01T04:30:34;86013.85;;;7.67;24.44
40948;BME280;49382;-25.924;28.194;2023-08-01T04:32:59;86011.88;;;8.05;24.12
40948;BME280;49382;-25.924;28.194;2023-08-01T04:35:25;86011.79;;;8.16;23.99
40948;BME280;49382;-25.924;28.194;2023-08-01T04:37:50;86014.89;;;7.84;24.55
40948;BME280;49382;-25.924;28.194;2023-08-01T04:40:15;86020.05;;;8.06;24.09
40948;BME280;49382;-25.924;28.194;2023-08-01T04:42:40;86024.94;;;8.16;23.89
40948;BME280;49382;-25.924;28.194;2023-08-01T04:45:07;86022.28;;;8.81;23.32
40948;BME280;49382;-25.924;28.194;2023-08-01T04:47:31;86023.15;;;8.47;23.41
40948;BME280;49382;-25.924;28.194;2023-08-01T04:49:56;86031.93;;;8.43;23.78
40948;BME280;49382;-25.924;28.194;2023-08-01T04:52:21;86027.92;;;7.57;24.34
40948;BME280;49382;-25.924;28.194;2023-08-01T04:54:47;86028.40;;;8.24;23.71
40948;BME280;49382;-25.924;28.194;2023-08-01T04:57:12;86027.23;;;8.00;23.94
40948;BME280;49382;-25.924;28.194;2023-08-01T04:59:37;86028.94;;;8.36;23.74
40948;BME280;49382;-25.924;28.194;2023-08-01T05:02:02;86033.81;;;8.87;23.40
40948;BME280;49382;-25.924;28.194;2023-08-01T05:04:28;86037.77;;;9.26;23.02
40948;BME280;49382;-25.924;28.194;2023-08-01T05:06:53;86036.40;;;9.37;22.63
40948;BME280;49382;-25.924;28.194;2023-08-01T05:09:18;86034.01;;;8.42;23.51
40948;BME280;49382;-25.924;28.194;2023-08-01T05:11:43;86047.57;;;8.52;23.71
40948;BME280;49382;-25.924;28.194;2023-08-01T05:14:08;86046.60;;;9.11;22.91
40948;BME280;49382;-25.924;28.194;2023-08-01T05:16:34;86046.52;;;8.95;23.08
40948;BME280;49382;-25.924;28.194;2023-08-01T05:18:59;86045.25;;;9.29;22.82
40948;BME280;49382;-25.924;28.194;2023-08-01T05:21:24;86048.21;;;9.22;22.97
40948;BME280;49382;-25.924;28.194;2023-08-01T05:23:49;86048.11;;;9.44;22.86
40948;BME280;49382;-25.924;28.194;2023-08-01T05:26:14;86055.18;;;9.33;22.94
40948;BME280;49382;-25.924;28.194;2023-08-01T05:28:40;86059.25;;;9.57;22.83
40948;BME280;49382;-25.924;28.194;2023-08-01T05:31:05;86064.40;;;9.94;22.59
40948;BME280;49382;-25.924;28.194;2023-08-01T05:33:30;86069.58;;;10.04;22.87
40948;BME280;49382;-25.924;28.194;2023-08-01T05:35:56;86073.11;;;10.15;22.90
40948;BME280;49382;-25.924;28.194;2023-08-01T05:38:22;86070.98;;;10.63;22.70
40948;BME280;49382;-25.924;28.194;2023-08-01T05:40:47;86077.16;;;11.19;22.46
40948;BME280;49382;-25.924;28.194;2023-08-01T05:43:12;86074.58;;;11.26;22.48
40948;BME280;49382;-25.924;28.194;2023-08-01T05:45:38;86074.45;;;10.98;22.62
40948;BME280;49382;-25.924;28.194;2023-08-01T05:48:03;86075.61;;;10.99;22.41
40948;BME280;49382;-25.924;28.194;2023-08-01T05:50:28;86075.07;;;11.03;22.06
40948;BME280;49382;-25.924;28.194;2023-08-01T05:52:53;86078.02;;;11.21;21.56
40948;BME280;49382;-25.924;28.194;2023-08-01T05:55:18;86080.83;;;11.12;21.58
40948;BME280;49382;-25.924;28.194;2023-08-01T05:57:44;86081.59;;;11.76;21.29
40948;BME280;49382;-25.924;28.194;2023-08-01T06:00:10;86087.10;;;11.48;21.92
40948;BME280;49382;-25.924;28.194;2023-08-01T06:02:34;86087.36;;;12.03;21.28
40948;BME280;49382;-25.924;28.194;2023-08-01T06:04:59;86089.29;;;11.71;21.19
40948;BME280;49382;-25.924;28.194;2023-08-01T06:07:24;86092.64;;;11.96;20.57
40948;BME280;49382;-25.924;28.194;2023-08-01T06:09:50;86097.31;;;12.65;20.09
40948;BME280;49382;-25.924;28.194;2023-08-01T06:12:15;86096.28;;;12.64;19.91
40948;BME280;49382;-25.924;28.194;2023-08-01T06:14:40;86100.04;;;12.32;20.06
40948;BME280;49382;-25.924;28.194;2023-08-01T06:17:05;86098.62;;;12.34;20.68
40948;BME280;49382;-25.924;28.194;2023-08-01T06:19:30;86094.82;;;12.78;19.74
40948;BME280;49382;-25.924;28.194;2023-08-01T06:21:56;86096.03;;;11.99;19.84
40948;BME280;49382;-25.924;28.194;2023-08-01T06:24:20;86094.52;;;12.59;20.00
40948;BME280;49382;-25.924;28.194;2023-08-01T06:26:45;86098.12;;;12.77;20.04
40948;BME280;49382;-25.924;28.194;2023-08-01T06:29:11;86100.25;;;13.38;18.98
40948;BME280;49382;-25.924;28.194;2023-08-01T06:31:36;86104.73;;;13.28;19.13
40948;BME280;49382;-25.924;28.194;2023-08-01T06:34:01;86106.76;;;13.49;18.57
40948;BME280;49382;-25.924;28.194;2023-08-01T06:36:26;86108.95;;;12.67;19.10
40948;BME280;49382;-25.924;28.194;2023-08-01T06:38:51;86116.54;;;13.67;19.11
40948;BME280;49382;-25.924;28.194;2023-08-01T06:41:16;86118.73;;;13.30;18.70
40948;BME280;49382;-25.924;28.194;2023-08-01T06:43:41;86130.83;;;13.42;18.48
40948;BME280;49382;-25.924;28.194;2023-08-01T06:46:07;86134.72;;;13.99;18.57
40948;BME280;49382;-25.924;28.194;2023-08-01T06:48:32;86142.84;;;13.98;17.83
40948;BME280;49382;-25.924;28.194;2023-08-01T06:50:57;86148.22;;;14.16;17.94
40948;BME280;49382;-25.924;28.194;2023-08-01T06:53:22;86148.16;;;14.59;18.20
40948;BME280;49382;-25.924;28.194;2023-08-01T06:55:47;86152.73;;;14.87;17.25
40948;BME280;49382;-25.924;28.194;2023-08-01T06:58:12;86165.76;;;15.73;17.34
40948;BME280;49382;-25.924;28.194;2023-08-01T07:00:37;86163.78;;;16.42;15.91
40948;BME280;49382;-25.924;28.194;2023-08-01T07:03:02;86173.23;;;20.25;14.04
40948;BME280;49382;-25.924;28.194;2023-08-01T07:05:27;86178.02;;;25.22;10.92
40948;BME280;49382;-25.924;28.194;2023-08-01T07:07:52;86184.13;;;27.00;9.73
40948;BME280;49382;-25.924;28.194;2023-08-01T07:10:18;86191.18;;;29.45;8.28
40948;BME280;49382;-25.924;28.194;2023-08-01T07:12:42;86201.10;;;30.81;7.16
40948;BME280;49382;-25.924;28.194;2023-08-01T07:15:09;86194.96;;;31.18;6.79
40948;BME280;49382;-25.924;28.194;2023-08-01T07:17:32;86203.62;;;31.17;6.89
40948;BME280;49382;-25.924;28.194;2023-08-01T07:19:58;86208.10;;;32.93;5.70
40948;BME280;49382;-25.924;28.194;2023-08-01T07:22:23;86207.25;;;32.96;5.56
40948;BME280;49382;-25.924;28.194;2023-08-01T07:24:52;86212.89;;;33.20;5.66
40948;BME280;49382;-25.924;28.194;2023-08-01T07:27:13;86212.14;;;33.50;5.43
40948;BME280;49382;-25.924;28.194;2023-08-01T07:29:38;86211.50;;;34.86;5.14
40948;BME280;49382;-25.924;28.194;2023-08-01T07:32:03;86207.30;;;33.00;5.68
40948;BME280;49382;-25.924;28.194;2023-08-01T07:34:29;86220.57;;;34.55;5.00
40948;BME280;49382;-25.924;28.194;2023-08-01T07:36:55;86212.06;;;34.42;5.38
40948;BME280;49382;-25.924;28.194;2023-08-01T07:39:20;86220.29;;;32.95;5.36
40948;BME280;49382;-25.924;28.194;2023-08-01T07:41:46;86213.07;;;34.74;4.78
40948;BME280;49382;-25.924;28.194;2023-08-01T07:44:11;86209.44;;;35.51;4.56
40948;BME280;49382;-25.924;28.194;2023-08-01T07:46:38;86212.07;;;35.99;4.23
40948;BME280;49382;-25.924;28.194;2023-08-01T07:49:03;86217.05;;;36.25;4.13
40948;BME280;49382;-25.924;28.194;2023-08-01T07:51:29;86215.10;;;35.59;4.31
40948;BME280;49382;-25.924;28.194;2023-08-01T07:53:55;86216.65;;;35.51;4.47
40948;BME280;49382;-25.924;28.194;2023-08-01T07:56:21;86210.72;;;35.43;4.74
40948;BME280;49382;-25.924;28.194;2023-08-01T07:58:46;86205.61;;;32.59;5.61
40948;BME280;49382;-25.924;28.194;2023-08-01T08:01:12;86210.19;;;32.31;6.03
40948;BME280;49382;-25.924;28.194;2023-08-01T08:03:38;86208.69;;;29.72;6.28
40948;BME280;49382;-25.924;28.194;2023-08-01T08:06:03;86214.09;;;29.48;6.13
40948;BME280;49382;-25.924;28.194;2023-08-01T08:08:29;86220.45;;;28.37;6.76
40948;BME280;49382;-25.924;28.194;2023-08-01T08:10:55;86213.85;;;27.38;7.07
40948;BME280;49382;-25.924;28.194;2023-08-01T08:13:20;86212.70;;;26.38;7.68
40948;BME280;49382;-25.924;28.194;2023-08-01T08:15:45;86213.01;;;26.62;7.37
40948;BME280;49382;-25.924;28.194;2023-08-01T08:18:11;86215.48;;;26.74;7.37
40948;BME280;49382;-25.924;28.194;2023-08-01T08:20:42;86214.38;;;25.79;8.11
40948;BME280;49382;-25.924;28.194;2023-08-01T08:23:02;86223.08;;;24.88;8.27
40948;BME280;49382;-25.924;28.194;2023-08-01T08:25:28;86222.54;;;25.33;8.19
40948;BME280;49382;-25.924;28.194;2023-08-01T08:27:53;86220.11;;;25.21;8.75
40948;BME280;49382;-25.924;28.194;2023-08-01T08:30:19;86220.72;;;25.57;8.50
40948;BME280;49382;-25.924;28.194;2023-08-01T08:32:44;86229.11;;;24.64;8.59
40948;BME280;49382;-25.924;28.194;2023-08-01T08:35:10;86223.01;;;23.84;9.36
40948;BME280;49382;-25.924;28.194;2023-08-01T08:37:36;86227.09;;;23.32;9.62
40948;BME280;49382;-25.924;28.194;2023-08-01T08:40:02;86227.44;;;23.46;9.47
40948;BME280;49382;-25.924;28.194;2023-08-01T08:42:27;86212.79;;;23.03;9.68
40948;BME280;49382;-25.924;28.194;2023-08-01T08:44:55;86223.97;;;23.71;9.29
40948;BME280;49382;-25.924;28.194;2023-08-01T08:47:21;86215.64;;;22.80;9.52
40948;BME280;49382;-25.924;28.194;2023-08-01T08:49:45;86230.24;;;23.50;9.38
40948;BME280;49382;-25.924;28.194;2023-08-01T08:52:11;86214.61;;;22.97;9.44
40948;BME280;49382;-25.924;28.194;2023-08-01T08:54:37;86211.93;;;23.56;9.43
40948;BME280;49382;-25.924;28.194;2023-08-01T08:57:01;86214.70;;;22.78;10.62
40948;BME280;49382;-25.924;28.194;2023-08-01T08:59:27;86207.29;;;23.43;9.77
40948;BME280;49382;-25.924;28.194;2023-08-01T09:01:52;86207.83;;;22.72;10.56
40948;BME280;49382;-25.924;28.194;2023-08-01T09:04:17;86194.61;;;22.30;10.49
40948;BME280;49382;-25.924;28.194;2023-08-01T09:06:46;86188.95;;;22.21;10.43
40948;BME280;49382;-25.924;28.194;2023-08-01T09:09:11;86198.88;;;22.58;10.25
40948;BME280;49382;-25.924;28.194;2023-08-01T09:11:39;86192.96;;;22.85;10.32
40948;BME280;49382;-25.924;28.194;2023-08-01T09:14:00;86183.68;;;22.36;10.51
40948;BME280;49382;-25.924;28.194;2023-08-01T09:16:26;86177.90;;;22.12;11.04
40948;BME280;49382;-25.924;28.194;2023-08-01T09:18:51;86185.22;;;19.44;12.37
40948;BME280;49382;-25.924;28.194;2023-08-01T09:21:18;86182.59;;;21.50;12.61
40948;BME280;49382;-25.924;28.194;2023-08-01T09:23:42;86173.64;;;20.23;12.83
40948;BME280;49382;-25.924;28.194;2023-08-01T09:26:13;86176.03;;;21.34;13.33
40948;BME280;49382;-25.924;28.194;2023-08-01T09:28:32;86176.36;;;20.00;29.01
40948;BME280;49382;-25.924;28.194;2023-08-01T09:30:58;86174.10;;;18.74;53.33
